sensor_id;sensor_type;location;lat;lon;timestamp;pressure;altitude;pressure_sealevel;temperature
21336;BMP180;69435;52.670;13.544;2023-12-04T00:00:06;101418.00;;;1.30
21336;BMP180;69435;52.670;13.544;2023-12-04T00:02:53;101467.00;;;0.50
21336;BMP180;69435;52.670;13.544;2023-12-04T00:05:42;101386.00;;;1.10
21336;BMP180;69435;52.670;13.544;2023-12-04T00:08:29;101438.00;;;0.30
21336;BMP180;69435;52.670;13.544;2023-12-04T00:11:15;101379.00;;;1.00
21336;BMP180;69435;52.670;13.544;2023-12-04T00:14:01;101379.00;;;0.90
21336;BMP180;69435;52.670;13.544;2023-12-04T00:16:47;101369.00;;;0.80
21336;BMP180;69435;52.670;13.544;2023-12-04T00:19:33;101452.00;;;0.80
21336;BMP180;69435;52.670;13.544;2023-12-04T00:22:20;101372.00;;;0.70
21336;BMP180;69435;52.670;13.544;2023-12-04T00:25:06;101327.00;;;0.70
21336;BMP180;69435;52.670;13.544;2023-12-04T00:27:53;101340.00;;;0.60
21336;BMP180;69435;52.670;13.544;2023-12-04T00:30:39;101372.00;;;0.60
21336;BMP180;69435;52.670;13.544;2023-12-04T00:33:25;101365.00;;;0.50
21336;BMP180;69435;52.670;13.544;2023-12-04T00:36:11;101411.00;;;0.50
21336;BMP180;69435;52.670;13.544;2023-12-04T00:38:57;101358.00;;;0.40
21336;BMP180;69435;52.670;13.544;2023-12-04T00:41:43;101379.00;;;0.40
21336;BMP180;69435;52.670;13.544;2023-12-04T00:44:29;101376.00;;;0.30
21336;BMP180;69435;52.670;13.544;2023-12-04T00:47:15;101464.00;;;0.30
21336;BMP180;69435;52.670;13.544;2023-12-04T00:50:01;101368.00;;;0.20
21336;BMP180;69435;52.670;13.544;2023-12-04T00:52:48;101386.00;;;0.20
21336;BMP180;69435;52.670;13.544;2023-12-04T00:55:34;101394.00;;;0.10
21336;BMP180;69435;52.670;13.544;2023-12-04T00:58:20;101360.00;;;0.10
21336;BMP180;69435;52.670;13.544;2023-12-04T01:01:06;101370.00;;;0.00
21336;BMP180;69435;52.670;13.544;2023-12-04T01:03:52;101450.00;;;0.00
21336;BMP180;69435;52.670;13.544;2023-12-04T01:06:38;101391.00;;;0.00
21336;BMP180;69435;52.670;13.544;2023-12-04T01:09:24;101410.00;;;-0.10
21336;BMP180;69435;52.670;13.544;2023-12-04T01:12:10;101405.00;;;-0.10
21336;BMP180;69435;52.670;13.544;2023-12-04T01:14:56;101486.00;;;-0.40
21336;BMP180;69435;52.670;13.544;2023-12-04T01:17:42;101390.00;;;-0.20
21336;BMP180;69435;52.670;13.544;2023-12-04T01:20:28;101370.00;;;-0.30
21336;BMP180;69435;52.670;13.544;2023-12-04T01:23:15;101387.00;;;-0.30
21336;BMP180;69435;52.670;13.544;2023-12-04T01:26:03;101379.00;;;-0.40
21336;BMP180;69435;52.670;13.544;2023-12-04T01:28:49;101453.00;;;-0.40
21336;BMP180;69435;52.670;13.544;2023-12-04T01:31:35;101453.00;;;-0.40
21336;BMP180;69435;52.670;13.544;2023-12-04T01:34:21;101314.00;;;-0.70
21336;BMP180;69435;52.670;13.544;2023-12-04T01:37:07;101422.00;;;-0.50
21336;BMP180;69435;52.670;13.544;2023-12-04T01:39:54;101343.00;;;-0.70
21336;BMP180;69435;52.670;13.544;2023-12-04T01:42:42;101446.00;;;-0.60
21336;BMP180;69435;52.670;13.544;2023-12-04T01:45:28;101436.00;;;-0.60
21336;BMP180;69435;52.670;13.544;2023-12-04T01:48:15;101346.00;;;-0.60
21336;BMP180;69435;52.670;13.544;2023-12-04T01:51:06;101417.00;;;-1.10
21336;BMP180;69435;52.670;13.544;2023-12-04T01:53:55;101424.00;;;-0.70
21336;BMP180;69435;52.670;13.544;2023-12-04T01:56:43;101399.00;;;-0.70
21336;BMP180;69435;52.670;13.544;2023-12-04T01:59:30;101402.00;;;-0.70
21336;BMP180;69435;52.670;13.544;2023-12-04T02:02:16;101434.00;;;-0.70
21336;BMP180;69435;52.670;13.544;2023-12-04T02:05:04;101407.00;;;-0.70
21336;BMP180;69435;52.670;13.544;2023-12-04T02:07:52;101426.00;;;-0.80
21336;BMP180;69435;52.670;13.544;2023-12-04T02:10:38;101324.00;;;-0.80
21336;BMP180;69435;52.670;13.544;2023-12-04T02:13:28;101274.00;;;-1.50
21336;BMP180;69435;52.670;13.544;2023-12-04T02:16:19;101331.00;;;-1.10
21336;BMP180;69435;52.670;13.544;2023-12-04T02:19:11;101285.00;;;-0.90
21336;BMP180;69435;52.670;13.544;2023-12-04T02:21:58;101365.00;;;-0.90
21336;BMP180;69435;52.670;13.544;2023-12-04T02:24:47;101193.00;;;-0.80
21336;BMP180;69435;52.670;13.544;2023-12-04T02:27:49;101117.00;;;-0.90
21336;BMP180;69435;52.670;13.544;2023-12-04T02:30:37;101278.00;;;-0.80
21336;BMP180;69435;52.670;13.544;2023-12-04T02:33:26;101319.00;;;-0.90
21336;BMP180;69435;52.670;13.544;2023-12-04T02:36:14;101165.00;;;-0.90
21336;BMP180;69435;52.670;13.544;2023-12-04T02:39:01;101346.00;;;-0.80
21336;BMP180;69435;52.670;13.544;2023-12-04T02:41:48;101348.00;;;-0.90
21336;BMP180;69435;52.670;13.544;2023-12-04T02:44:34;101383.00;;;-0.90
21336;BMP180;69435;52.670;13.544;2023-12-04T02:47:20;101273.00;;;-0.90
21336;BMP180;69435;52.670;13.544;2023-12-04T02:50:07;101371.00;;;-0.90
21336;BMP180;69435;52.670;13.544;2023-12-04T02:52:53;101290.00;;;-0.90
21336;BMP180;69435;52.670;13.544;2023-12-04T02:55:39;101360.00;;;-0.90
21336;BMP180;69435;52.670;13.544;2023-12-04T02:58:25;101304.00;;;-0.90
21336;BMP180;69435;52.670;13.544;2023-12-04T03:01:11;101280.00;;;-0.90
21336;BMP180;69435;52.670;13.544;2023-12-04T03:03:57;101379.00;;;-0.90
21336;BMP180;69435;52.670;13.544;2023-12-04T03:06:43;101359.00;;;-0.90
21336;BMP180;69435;52.670;13.544;2023-12-04T03:09:29;101372.00;;;-0.90
21336;BMP180;69435;52.670;13.544;2023-12-04T03:12:17;101371.00;;;-1.10
21336;BMP180;69435;52.670;13.544;2023-12-04T03:15:03;101384.00;;;-0.90
21336;BMP180;69435;52.670;13.544;2023-12-04T03:17:52;101253.00;;;-0.90
21336;BMP180;69435;52.670;13.544;2023-12-04T03:20:38;101379.00;;;-0.90
21336;BMP180;69435;52.670;13.544;2023-12-04T03:23:24;101278.00;;;-0.80
21336;BMP180;69435;52.670;13.544;2023-12-04T03:26:10;101375.00;;;-0.80
21336;BMP180;69435;52.670;13.544;2023-12-04T03:28:56;101358.00;;;-0.80
21336;BMP180;69435;52.670;13.544;2023-12-04T03:31:42;101253.00;;;-0.80
21336;BMP180;69435;52.670;13.544;2023-12-04T03:34:28;101362.00;;;-0.70
21336;BMP180;69435;52.670;13.544;2023-12-04T03:37:14;101334.00;;;-0.70
21336;BMP180;69435;52.670;13.544;2023-12-04T03:40:00;101261.00;;;-0.70
21336;BMP180;69435;52.670;13.544;2023-12-04T03:42:46;101320.00;;;-0.70
21336;BMP180;69435;52.670;13.544;2023-12-04T03:45:32;101335.00;;;-0.60
21336;BMP180;69435;52.670;13.544;2023-12-04T03:48:18;101269.00;;;-0.60
21336;BMP180;69435;52.670;13.544;2023-12-04T03:51:05;101245.00;;;-0.60
21336;BMP180;69435;52.670;13.544;2023-12-04T03:53:52;101330.00;;;-0.50
21336;BMP180;69435;52.670;13.544;2023-12-04T03:56:38;101263.00;;;-0.50
21336;BMP180;69435;52.670;13.544;2023-12-04T03:59:24;101355.00;;;-0.80
21336;BMP180;69435;52.670;13.544;2023-12-04T04:02:10;101249.00;;;-0.70
21336;BMP180;69435;52.670;13.544;2023-12-04T04:04:56;101301.00;;;-0.50
21336;BMP180;69435;52.670;13.544;2023-12-04T04:07:43;101349.00;;;-0.50
21336;BMP180;69435;52.670;13.544;2023-12-04T04:10:36;101295.00;;;-0.50
21336;BMP180;69435;52.670;13.544;2023-12-04T04:13:24;101125.00;;;-1.00
21336;BMP180;69435;52.670;13.544;2023-12-04T04:16:16;101045.00;;;-0.40
21336;BMP180;69435;52.670;13.544;2023-12-04T04:19:03;101146.00;;;-0.40
21336;BMP180;69435;52.670;13.544;2023-12-04T04:21:51;101192.00;;;-0.40
21336;BMP180;69435;52.670;13.544;2023-12-04T04:24:38;101128.00;;;-0.40
21336;BMP180;69435;52.670;13.544;2023-12-04T04:27:24;101114.00;;;-0.40
21336;BMP180;69435;52.670;13.544;2023-12-04T04:30:11;101115.00;;;-0.60
21336;BMP180;69435;52.670;13.544;2023-12-04T04:32:59;101358.00;;;-1.20
21336;BMP180;69435;52.670;13.544;2023-12-04T04:35:50;101159.00;;;-0.30
21336;BMP180;69435;52.670;13.544;2023-12-04T04:38:36;101276.00;;;-0.30
21336;BMP180;69435;52.670;13.544;2023-12-04T04:41:23;101064.00;;;-0.20
21336;BMP180;69435;52.670;13.544;2023-12-04T04:44:09;101280.00;;;-0.20
21336;BMP180;69435;52.670;13.544;2023-12-04T04:46:55;101255.00;;;-0.50
21336;BMP180;69435;52.670;13.544;2023-12-04T04:49:41;101349.00;;;-0.10
21336;BMP180;69435;52.670;13.544;2023-12-04T04:52:28;101177.00;;;-0.70
21336;BMP180;69435;52.670;13.544;2023-12-04T04:55:14;101022.00;;;-0.10
21336;BMP180;69435;52.670;13.544;2023-12-04T04:58:00;101310.00;;;-0.10
21336;BMP180;69435;52.670;13.544;2023-12-04T05:00:46;101230.00;;;-0.10
21336;BMP180;69435;52.670;13.544;2023-12-04T05:03:35;101230.00;;;-0.10
21336;BMP180;69435;52.670;13.544;2023-12-04T05:06:21;101243.00;;;-0.10
21336;BMP180;69435;52.670;13.544;2023-12-04T05:09:08;101230.00;;;-0.20
21336;BMP180;69435;52.670;13.544;2023-12-04T05:11:54;101314.00;;;-0.20
21336;BMP180;69435;52.670;13.544;2023-12-04T05:14:40;101295.00;;;-0.20
21336;BMP180;69435;52.670;13.544;2023-12-04T05:17:26;101295.00;;;-0.10
21336;BMP180;69435;52.670;13.544;2023-12-04T05:20:12;101276.00;;;-0.10
21336;BMP180;69435;52.670;13.544;2023-12-04T05:22:58;101239.00;;;-0.10
21336;BMP180;69435;52.670;13.544;2023-12-04T05:25:44;101283.00;;;-0.10
21336;BMP180;69435;52.670;13.544;2023-12-04T05:28:31;101211.00;;;-0.10
21336;BMP180;69435;52.670;13.544;2023-12-04T05:31:17;101207.00;;;-0.10
21336;BMP180;69435;52.670;13.544;2023-12-04T05:34:03;101181.00;;;-0.10
21336;BMP180;69435;52.670;13.544;2023-12-04T05:36:49;101206.00;;;-0.10
21336;BMP180;69435;52.670;13.544;2023-12-04T05:39:35;101191.00;;;-0.10
21336;BMP180;69435;52.670;13.544;2023-12-04T05:42:21;101188.00;;;-0.10
21336;BMP180;69435;52.670;13.544;2023-12-04T05:45:08;101186.00;;;0.00
21336;BMP180;69435;52.670;13.544;2023-12-04T05:47:54;101188.00;;;0.00
21336;BMP180;69435;52.670;13.544;2023-12-04T05:50:40;101269.00;;;0.00
21336;BMP180;69435;52.670;13.544;2023-12-04T05:53:26;101192.00;;;0.00
21336;BMP180;69435;52.670;13.544;2023-12-04T05:56:12;101246.00;;;0.00
21336;BMP180;69435;52.670;13.544;2023-12-04T05:58:58;101246.00;;;0.00
21336;BMP180;69435;52.670;13.544;2023-12-04T06:01:44;101199.00;;;0.00
21336;BMP180;69435;52.670;13.544;2023-12-04T06:04:30;101254.00;;;0.00
21336;BMP180;69435;52.670;13.544;2023-12-04T06:07:17;101179.00;;;-0.10
21336;BMP180;69435;52.670;13.544;2023-12-04T06:10:04;101268.00;;;-0.10
21336;BMP180;69435;52.670;13.544;2023-12-04T06:12:50;101239.00;;;-0.10
21336;BMP180;69435;52.670;13.544;2023-12-04T06:15:36;101210.00;;;0.00
21336;BMP180;69435;52.670;13.544;2023-12-04T06:18:22;101273.00;;;0.00
21336;BMP180;69435;52.670;13.544;2023-12-04T06:21:08;101240.00;;;-0.10
21336;BMP180;69435;52.670;13.544;2023-12-04T06:23:54;101166.00;;;-0.10
21336;BMP180;69435;52.670;13.544;2023-12-04T06:26:42;101246.00;;;-0.10
21336;BMP180;69435;52.670;13.544;2023-12-04T06:29:29;101275.00;;;0.00
21336;BMP180;69435;52.670;13.544;2023-12-04T06:32:16;101151.00;;;0.00
21336;BMP180;69435;52.670;13.544;2023-12-04T06:35:03;101257.00;;;0.00
21336;BMP180;69435;52.670;13.544;2023-12-04T06:37:53;101258.00;;;0.00
21336;BMP180;69435;52.670;13.544;2023-12-04T06:40:41;101265.00;;;0.00
21336;BMP180;69435;52.670;13.544;2023-12-04T06:43:27;101204.00;;;0.00
21336;BMP180;69435;52.670;13.544;2023-12-04T06:46:15;101270.00;;;0.00
21336;BMP180;69435;52.670;13.544;2023-12-04T06:49:03;101250.00;;;0.10
21336;BMP180;69435;52.670;13.544;2023-12-04T06:51:50;101175.00;;;0.10
21336;BMP180;69435;52.670;13.544;2023-12-04T06:54:36;101233.00;;;-0.20
21336;BMP180;69435;52.670;13.544;2023-12-04T06:57:22;101216.00;;;0.20
21336;BMP180;69435;52.670;13.544;2023-12-04T07:00:08;101176.00;;;0.20
21336;BMP180;69435;52.670;13.544;2023-12-04T07:02:58;101252.00;;;0.20
21336;BMP180;69435;52.670;13.544;2023-12-04T07:05:44;101142.00;;;0.20
21336;BMP180;69435;52.670;13.544;2023-12-04T07:08:30;101176.00;;;0.20
21336;BMP180;69435;52.670;13.544;2023-12-04T07:11:16;101171.00;;;0.30
21336;BMP180;69435;52.670;13.544;2023-12-04T07:14:02;101226.00;;;0.20
21336;BMP180;69435;52.670;13.544;2023-12-04T07:16:48;101157.00;;;0.40
21336;BMP180;69435;52.670;13.544;2023-12-04T07:19:35;101099.00;;;0.50
21336;BMP180;69435;52.670;13.544;2023-12-04T07:22:21;101197.00;;;0.50
21336;BMP180;69435;52.670;13.544;2023-12-04T07:25:07;101148.00;;;0.60
21336;BMP180;69435;52.670;13.544;2023-12-04T07:27:54;101217.00;;;0.60
21336;BMP180;69435;52.670;13.544;2023-12-04T07:30:40;101190.00;;;0.70
21336;BMP180;69435;52.670;13.544;2023-12-04T07:33:26;101128.00;;;0.70
21336;BMP180;69435;52.670;13.544;2023-12-04T07:36:12;101193.00;;;0.80
21336;BMP180;69435;52.670;13.544;2023-12-04T07:38:58;101138.00;;;0.70
21336;BMP180;69435;52.670;13.544;2023-12-04T07:41:44;101195.00;;;0.70
21336;BMP180;69435;52.670;13.544;2023-12-04T07:44:30;101126.00;;;1.00
21336;BMP180;69435;52.670;13.544;2023-12-04T07:47:16;101194.00;;;0.90
21336;BMP180;69435;52.670;13.544;2023-12-04T07:50:03;101201.00;;;1.10
21336;BMP180;69435;52.670;13.544;2023-12-04T07:52:49;101190.00;;;1.20
21336;BMP180;69435;52.670;13.544;2023-12-04T07:55:35;101186.00;;;1.20
21336;BMP180;69435;52.670;13.544;2023-12-04T07:58:22;101199.00;;;1.10
21336;BMP180;69435;52.670;13.544;2023-12-04T08:01:08;101204.00;;;1.30
21336;BMP180;69435;52.670;13.544;2023-12-04T08:03:54;101106.00;;;1.40
21336;BMP180;69435;52.670;13.544;2023-12-04T08:06:40;101165.00;;;1.50
21336;BMP180;69435;52.670;13.544;2023-12-04T08:09:26;101132.00;;;1.50
21336;BMP180;69435;52.670;13.544;2023-12-04T08:12:12;101197.00;;;1.60
21336;BMP180;69435;52.670;13.544;2023-12-04T08:14:59;101186.00;;;1.70
21336;BMP180;69435;52.670;13.544;2023-12-04T08:17:45;101178.00;;;1.70
21336;BMP180;69435;52.670;13.544;2023-12-04T08:20:31;101094.00;;;1.80
21336;BMP180;69435;52.670;13.544;2023-12-04T08:23:17;101201.00;;;1.90
21336;BMP180;69435;52.670;13.544;2023-12-04T08:26:03;101122.00;;;1.90
21336;BMP180;69435;52.670;13.544;2023-12-04T08:28:51;101219.00;;;1.90
21336;BMP180;69435;52.670;13.544;2023-12-04T08:31:38;101126.00;;;1.90
21336;BMP180;69435;52.670;13.544;2023-12-04T08:34:24;101177.00;;;1.90
21336;BMP180;69435;52.670;13.544;2023-12-04T08:37:10;101125.00;;;2.00
21336;BMP180;69435;52.670;13.544;2023-12-04T08:39:56;101165.00;;;2.00
21336;BMP180;69435;52.670;13.544;2023-12-04T08:42:43;101191.00;;;2.00
21336;BMP180;69435;52.670;13.544;2023-12-04T08:45:30;101179.00;;;2.10
21336;BMP180;69435;52.670;13.544;2023-12-04T08:48:16;101184.00;;;2.10
21336;BMP180;69435;52.670;13.544;2023-12-04T08:51:03;101198.00;;;2.20
21336;BMP180;69435;52.670;13.544;2023-12-04T08:53:49;101114.00;;;2.20
21336;BMP180;69435;52.670;13.544;2023-12-04T08:56:35;101083.00;;;2.20
21336;BMP180;69435;52.670;13.544;2023-12-04T08:59:21;101183.00;;;2.30
21336;BMP180;69435;52.670;13.544;2023-12-04T09:02:07;101126.00;;;2.30
21336;BMP180;69435;52.670;13.544;2023-12-04T09:04:53;101201.00;;;2.40
21336;BMP180;69435;52.670;13.544;2023-12-04T09:07:39;101131.00;;;2.50
21336;BMP180;69435;52.670;13.544;2023-12-04T09:10:26;101200.00;;;2.50
21336;BMP180;69435;52.670;13.544;2023-12-04T09:13:12;101180.00;;;2.50
21336;BMP180;69435;52.670;13.544;2023-12-04T09:15:58;101196.00;;;1.80
21336;BMP180;69435;52.670;13.544;2023-12-04T09:18:44;101132.00;;;2.60
21336;BMP180;69435;52.670;13.544;2023-12-04T09:21:30;101179.00;;;2.60
21336;BMP180;69435;52.670;13.544;2023-12-04T09:24:16;101190.00;;;2.60
21336;BMP180;69435;52.670;13.544;2023-12-04T09:27:02;101078.00;;;2.70
21336;BMP180;69435;52.670;13.544;2023-12-04T09:29:48;101148.00;;;2.70
21336;BMP180;69435;52.670;13.544;2023-12-04T09:32:34;101116.00;;;2.70
21336;BMP180;69435;52.670;13.544;2023-12-04T09:35:21;101187.00;;;2.80
21336;BMP180;69435;52.670;13.544;2023-12-04T09:38:07;101104.00;;;2.80
21336;BMP180;69435;52.670;13.544;2023-12-04T09:40:55;101107.00;;;2.80
21336;BMP180;69435;52.670;13.544;2023-12-04T09:43:46;101179.00;;;2.90
21336;BMP180;69435;52.670;13.544;2023-12-04T09:46:34;101193.00;;;2.90
21336;BMP180;69435;52.670;13.544;2023-12-04T09:49:21;101153.00;;;2.90
21336;BMP180;69435;52.670;13.544;2023-12-04T09:52:07;101170.00;;;3.00
21336;BMP180;69435;52.670;13.544;2023-12-04T09:54:53;101099.00;;;2.80
21336;BMP180;69435;52.670;13.544;2023-12-04T09:57:39;101123.00;;;3.00
21336;BMP180;69435;52.670;13.544;2023-12-04T10:00:27;101058.00;;;3.10
21336;BMP180;69435;52.670;13.544;2023-12-04T10:03:13;101075.00;;;3.10
21336;BMP180;69435;52.670;13.544;2023-12-04T10:06:00;101080.00;;;3.10
21336;BMP180;69435;52.670;13.544;2023-12-04T10:08:46;101142.00;;;3.20
21336;BMP180;69435;52.670;13.544;2023-12-04T10:11:32;101126.00;;;3.20
21336;BMP180;69435;52.670;13.544;2023-12-04T10:14:20;101151.00;;;3.20
21336;BMP180;69435;52.670;13.544;2023-12-04T10:17:15;101126.00;;;3.30
21336;BMP180;69435;52.670;13.544;2023-12-04T10:20:11;101138.00;;;3.20
21336;BMP180;69435;52.670;13.544;2023-12-04T10:23:00;101050.00;;;3.20
21336;BMP180;69435;52.670;13.544;2023-12-04T10:25:49;101061.00;;;3.30
21336;BMP180;69435;52.670;13.544;2023-12-04T10:28:38;101069.00;;;3.30
21336;BMP180;69435;52.670;13.544;2023-12-04T10:31:24;101079.00;;;3.30
21336;BMP180;69435;52.670;13.544;2023-12-04T10:34:10;101094.00;;;3.40
21336;BMP180;69435;52.670;13.544;2023-12-04T10:36:57;101132.00;;;3.40
21336;BMP180;69435;52.670;13.544;2023-12-04T10:39:51;101011.00;;;3.40
21336;BMP180;69435;52.670;13.544;2023-12-04T10:42:37;101053.00;;;3.50
21336;BMP180;69435;52.670;13.544;2023-12-04T10:45:23;101096.00;;;3.60
21336;BMP180;69435;52.670;13.544;2023-12-04T10:48:11;101108.00;;;3.60
21336;BMP180;69435;52.670;13.544;2023-12-04T10:50:58;101074.00;;;3.60
21336;BMP180;69435;52.670;13.544;2023-12-04T10:53:45;101021.00;;;3.60
21336;BMP180;69435;52.670;13.544;2023-12-04T10:56:40;101017.00;;;3.60
21336;BMP180;69435;52.670;13.544;2023-12-04T10:59:36;101093.00;;;3.60
21336;BMP180;69435;52.670;13.544;2023-12-04T11:02:26;101087.00;;;3.70
21336;BMP180;69435;52.670;13.544;2023-12-04T11:05:16;101076.00;;;3.70
21336;BMP180;69435;52.670;13.544;2023-12-04T11:08:11;101057.00;;;3.60
21336;BMP180;69435;52.670;13.544;2023-12-04T11:11:05;101074.00;;;3.50
21336;BMP180;69435;52.670;13.544;2023-12-04T11:14:01;101091.00;;;3.80
21336;BMP180;69435;52.670;13.544;2023-12-04T11:16:54;101071.00;;;3.70
21336;BMP180;69435;52.670;13.544;2023-12-04T11:19:55;100966.00;;;3.90
21336;BMP180;69435;52.670;13.544;2023-12-04T11:22:45;100947.00;;;3.90
21336;BMP180;69435;52.670;13.544;2023-12-04T11:25:34;100981.00;;;4.00
21336;BMP180;69435;52.670;13.544;2023-12-04T11:28:21;101030.00;;;4.00
21336;BMP180;69435;52.670;13.544;2023-12-04T11:31:08;100982.00;;;4.10
21336;BMP180;69435;52.670;13.544;2023-12-04T11:34:02;100947.00;;;4.10
21336;BMP180;69435;52.670;13.544;2023-12-04T11:36:48;100960.00;;;4.10
21336;BMP180;69435;52.670;13.544;2023-12-04T11:39:35;101044.00;;;4.20
21336;BMP180;69435;52.670;13.544;2023-12-04T11:42:25;101025.00;;;4.20
21336;BMP180;69435;52.670;13.544;2023-12-04T11:45:19;101008.00;;;4.10
21336;BMP180;69435;52.670;13.544;2023-12-04T11:48:08;100970.00;;;4.20
21336;BMP180;69435;52.670;13.544;2023-12-04T11:50:56;100975.00;;;4.30
21336;BMP180;69435;52.670;13.544;2023-12-04T11:53:44;101059.00;;;4.30
21336;BMP180;69435;52.670;13.544;2023-12-04T11:56:31;100949.00;;;4.40
21336;BMP180;69435;52.670;13.544;2023-12-04T11:59:17;101042.00;;;4.40
21336;BMP180;69435;52.670;13.544;2023-12-04T12:02:07;101028.00;;;4.40
21336;BMP180;69435;52.670;13.544;2023-12-04T12:04:54;101019.00;;;4.40
21336;BMP180;69435;52.670;13.544;2023-12-04T12:07:41;100983.00;;;4.50
21336;BMP180;69435;52.670;13.544;2023-12-04T12:10:29;101013.00;;;4.40
21336;BMP180;69435;52.670;13.544;2023-12-04T12:13:15;101022.00;;;4.50
21336;BMP180;69435;52.670;13.544;2023-12-04T12:16:02;100936.00;;;4.40
21336;BMP180;69435;52.670;13.544;2023-12-04T12:18:49;100949.00;;;4.40
21336;BMP180;69435;52.670;13.544;2023-12-04T12:21:36;100994.00;;;4.30
21336;BMP180;69435;52.670;13.544;2023-12-04T12:24:24;100909.00;;;4.50
21336;BMP180;69435;52.670;13.544;2023-12-04T12:27:12;100962.00;;;4.50
21336;BMP180;69435;52.670;13.544;2023-12-04T12:29:58;100990.00;;;4.50
21336;BMP180;69435;52.670;13.544;2023-12-04T12:32:44;100968.00;;;4.60
21336;BMP180;69435;52.670;13.544;2023-12-04T12:35:30;100955.00;;;4.50
21336;BMP180;69435;52.670;13.544;2023-12-04T12:38:18;100940.00;;;4.50
21336;BMP180;69435;52.670;13.544;2023-12-04T12:41:08;100963.00;;;4.50
21336;BMP180;69435;52.670;13.544;2023-12-04T12:43:56;100960.00;;;4.40
21336;BMP180;69435;52.670;13.544;2023-12-04T12:46:47;100948.00;;;4.40
21336;BMP180;69435;52.670;13.544;2023-12-04T12:49:33;100952.00;;;4.40
21336;BMP180;69435;52.670;13.544;2023-12-04T12:52:21;100925.00;;;4.30
21336;BMP180;69435;52.670;13.544;2023-12-04T12:55:07;100902.00;;;4.30
21336;BMP180;69435;52.670;13.544;2023-12-04T12:57:57;100903.00;;;4.40
21336;BMP180;69435;52.670;13.544;2023-12-04T13:00:43;100881.00;;;4.30
21336;BMP180;69435;52.670;13.544;2023-12-04T13:03:30;100820.00;;;4.30
21336;BMP180;69435;52.670;13.544;2023-12-04T13:06:19;100947.00;;;4.30
21336;BMP180;69435;52.670;13.544;2023-12-04T13:09:05;100955.00;;;4.30
21336;BMP180;69435;52.670;13.544;2023-12-04T13:11:52;100899.00;;;4.30
21336;BMP180;69435;52.670;13.544;2023-12-04T13:14:38;100887.00;;;4.30
21336;BMP180;69435;52.670;13.544;2023-12-04T13:17:25;100897.00;;;4.40
21336;BMP180;69435;52.670;13.544;2023-12-04T13:20:11;100893.00;;;4.30
21336;BMP180;69435;52.670;13.544;2023-12-04T13:22:59;100894.00;;;4.30
21336;BMP180;69435;52.670;13.544;2023-12-04T13:25:45;100864.00;;;4.30
21336;BMP180;69435;52.670;13.544;2023-12-04T13:28:31;100875.00;;;4.30
21336;BMP180;69435;52.670;13.544;2023-12-04T13:31:18;100874.00;;;4.30
21336;BMP180;69435;52.670;13.544;2023-12-04T13:34:06;100871.00;;;4.30
21336;BMP180;69435;52.670;13.544;2023-12-04T13:36:53;100876.00;;;4.30
21336;BMP180;69435;52.670;13.544;2023-12-04T13:39:39;100909.00;;;4.30
21336;BMP180;69435;52.670;13.544;2023-12-04T13:42:33;100831.00;;;4.40
21336;BMP180;69435;52.670;13.544;2023-12-04T13:45:38;100835.00;;;4.30
21336;BMP180;69435;52.670;13.544;2023-12-04T13:48:24;100883.00;;;4.30
21336;BMP180;69435;52.670;13.544;2023-12-04T13:51:11;100863.00;;;4.30
21336;BMP180;69435;52.670;13.544;2023-12-04T13:53:57;100876.00;;;4.10
21336;BMP180;69435;52.670;13.544;2023-12-04T13:56:54;100870.00;;;4.20
21336;BMP180;69435;52.670;13.544;2023-12-04T13:59:42;100875.00;;;4.20
21336;BMP180;69435;52.670;13.544;2023-12-04T14:02:28;100881.00;;;4.20
21336;BMP180;69435;52.670;13.544;2023-12-04T14:05:14;100823.00;;;4.20
21336;BMP180;69435;52.670;13.544;2023-12-04T14:08:01;100863.00;;;4.10
21336;BMP180;69435;52.670;13.544;2023-12-04T14:10:49;100848.00;;;4.10
21336;BMP180;69435;52.670;13.544;2023-12-04T14:13:36;100830.00;;;4.10
21336;BMP180;69435;52.670;13.544;2023-12-04T14:16:22;100889.00;;;4.10
21336;BMP180;69435;52.670;13.544;2023-12-04T14:19:08;100846.00;;;4.10
21336;BMP180;69435;52.670;13.544;2023-12-04T14:21:54;100821.00;;;4.10
21336;BMP180;69435;52.670;13.544;2023-12-04T14:24:40;100869.00;;;4.00
21336;BMP180;69435;52.670;13.544;2023-12-04T14:27:26;100854.00;;;3.90
21336;BMP180;69435;52.670;13.544;2023-12-04T14:30:13;100817.00;;;3.90
21336;BMP180;69435;52.670;13.544;2023-12-04T14:33:00;100809.00;;;3.90
21336;BMP180;69435;52.670;13.544;2023-12-04T14:35:46;100851.00;;;3.60
21336;BMP180;69435;52.670;13.544;2023-12-04T14:38:33;100863.00;;;3.80
21336;BMP180;69435;52.670;13.544;2023-12-04T14:41:20;100870.00;;;3.80
21336;BMP180;69435;52.670;13.544;2023-12-04T14:44:06;100812.00;;;3.80
21336;BMP180;69435;52.670;13.544;2023-12-04T14:46:52;100779.00;;;3.70
21336;BMP180;69435;52.670;13.544;2023-12-04T14:49:38;100781.00;;;3.80
21336;BMP180;69435;52.670;13.544;2023-12-04T14:52:24;100773.00;;;3.70
21336;BMP180;69435;52.670;13.544;2023-12-04T14:55:14;100788.00;;;3.70
21336;BMP180;69435;52.670;13.544;2023-12-04T14:58:09;100823.00;;;3.70
21336;BMP180;69435;52.670;13.544;2023-12-04T15:01:20;100764.00;;;3.80
21336;BMP180;69435;52.670;13.544;2023-12-04T15:04:25;100772.00;;;3.70
21336;BMP180;69435;52.670;13.544;2023-12-04T15:07:30;100810.00;;;3.70
21336;BMP180;69435;52.670;13.544;2023-12-04T15:10:16;100775.00;;;3.80
21336;BMP180;69435;52.670;13.544;2023-12-04T15:13:05;100677.00;;;3.60
21336;BMP180;69435;52.670;13.544;2023-12-04T15:16:11;100824.00;;;3.50
21336;BMP180;69435;52.670;13.544;2023-12-04T15:19:00;100753.00;;;3.80
21336;BMP180;69435;52.670;13.544;2023-12-04T15:22:05;100811.00;;;3.70
21336;BMP180;69435;52.670;13.544;2023-12-04T15:24:52;100771.00;;;3.80
21336;BMP180;69435;52.670;13.544;2023-12-04T15:27:38;100800.00;;;3.80
21336;BMP180;69435;52.670;13.544;2023-12-04T15:30:24;100821.00;;;3.70
21336;BMP180;69435;52.670;13.544;2023-12-04T15:33:10;100764.00;;;3.80
21336;BMP180;69435;52.670;13.544;2023-12-04T15:35:56;100791.00;;;3.80
21336;BMP180;69435;52.670;13.544;2023-12-04T15:38:42;100819.00;;;3.50
21336;BMP180;69435;52.670;13.544;2023-12-04T15:41:30;100772.00;;;3.80
21336;BMP180;69435;52.670;13.544;2023-12-04T15:44:16;100734.00;;;3.80